sensor_id;sensor_type;location;lat;lon;timestamp;pressure;altitude;pressure_sealevel;temperature;humidity
76285;BME280;65096;50.998;7.098;2023-05-20T00:01:26;101547.63;;;13.52;41.80
76285;BME280;65096;50.998;7.098;2023-05-20T00:03:53;101547.59;;;13.46;42.18
76285;BME280;65096;50.998;7.098;2023-05-20T00:06:20;101544.09;;;13.45;42.59
76285;BME280;65096;50.998;7.098;2023-05-20T00:08:46;101548.38;;;13.40;43.22
76285;BME280;65096;50.998;7.098;2023-05-20T00:11:13;101539.75;;;13.37;42.63
76285;BME280;65096;50.998;7.098;2023-05-20T00:13:40;101541.50;;;13.42;42.16
76285;BME280;65096;50.998;7.098;2023-05-20T00:16:08;101536.31;;;13.41;42.53
76285;BME280;65096;50.998;7.098;2023-05-20T00:18:34;101533.69;;;13.36;42.28
76285;BME280;65096;50.998;7.098;2023-05-20T00:21:01;101540.59;;;13.37;42.33
76285;BME280;65096;50.998;7.098;2023-05-20T00:23:28;101544.97;;;13.41;42.82
76285;BME280;65096;50.998;7.098;2023-05-20T00:25:54;101542.34;;;13.37;42.36
76285;BME280;65096;50.998;7.098;2023-05-20T00:28:21;101546.66;;;13.36;42.45
76285;BME280;65096;50.998;7.098;2023-05-20T00:30:48;101552.66;;;13.35;42.13
76285;BME280;65096;50.998;7.098;2023-05-20T00:33:16;101535.34;;;13.27;42.48
76285;BME280;65096;50.998;7.098;2023-05-20T00:35:42;101536.09;;;13.17;42.82
76285;BME280;65096;50.998;7.098;2023-05-20T00:38:09;101539.59;;;13.20;43.25
76285;BME280;65096;50.998;7.098;2023-05-20T00:40:36;101524.97;;;13.24;42.71
76285;BME280;65096;50.998;7.098;2023-05-20T00:43:02;101530.97;;;13.23;42.61
76285;BME280;65096;50.998;7.098;2023-05-20T00:45:29;101531.84;;;13.22;43.00
76285;BME280;65096;50.998;7.098;2023-05-20T00:47:56;101524.03;;;13.19;42.97
76285;BME280;65096;50.998;7.098;2023-05-20T00:50:27;101522.34;;;13.22;42.82
76285;BME280;65096;50.998;7.098;2023-05-20T00:52:54;101518.88;;;13.22;43.17
76285;BME280;65096;50.998;7.098;2023-05-20T00:55:21;101521.47;;;13.22;42.87
76285;BME280;65096;50.998;7.098;2023-05-20T00:57:48;101518.84;;;13.16;43.54
76285;BME280;65096;50.998;7.098;2023-05-20T01:00:15;101517.09;;;13.15;43.15
76285;BME280;65096;50.998;7.098;2023-05-20T01:02:42;101518.75;;;13.08;43.74
76285;BME280;65096;50.998;7.098;2023-05-20T01:05:08;101510.97;;;13.05;43.39
76285;BME280;65096;50.998;7.098;2023-05-20T01:07:37;101510.13;;;13.06;43.19
76285;BME280;65096;50.998;7.098;2023-05-20T01:10:04;101510.13;;;13.08;43.64
76285;BME280;65096;50.998;7.098;2023-05-20T01:12:35;101509.22;;;13.03;43.92
76285;BME280;65096;50.998;7.098;2023-05-20T01:15:06;101504.00;;;12.95;43.35
76285;BME280;65096;50.998;7.098;2023-05-20T01:17:37;101505.69;;;12.95;43.65
76285;BME280;65096;50.998;7.098;2023-05-20T01:20:05;101506.53;;;12.94;43.97
76285;BME280;65096;50.998;7.098;2023-05-20T01:22:37;101492.69;;;12.87;43.81
76285;BME280;65096;50.998;7.098;2023-05-20T01:25:07;101502.19;;;12.88;43.95
76285;BME280;65096;50.998;7.098;2023-05-20T01:27:33;101502.16;;;12.84;43.72
76285;BME280;65096;50.998;7.098;2023-05-20T01:30:01;101499.56;;;12.84;43.71
76285;BME280;65096;50.998;7.098;2023-05-20T01:32:31;101501.28;;;12.86;43.97
76285;BME280;65096;50.998;7.098;2023-05-20T01:34:59;101492.63;;;12.84;43.86
76285;BME280;65096;50.998;7.098;2023-05-20T01:37:28;101489.19;;;12.82;43.76
76285;BME280;65096;50.998;7.098;2023-05-20T01:39:58;101491.69;;;12.75;44.30
76285;BME280;65096;50.998;7.098;2023-05-20T01:42:26;101499.44;;;12.73;43.82
76285;BME280;65096;50.998;7.098;2023-05-20T01:44:53;101493.41;;;12.73;44.03
76285;BME280;65096;50.998;7.098;2023-05-20T01:47:20;101489.09;;;12.73;44.30
76285;BME280;65096;50.998;7.098;2023-05-20T01:49:46;101490.75;;;12.68;44.49
76285;BME280;65096;50.998;7.098;2023-05-20T01:52:14;101482.94;;;12.64;44.41
76285;BME280;65096;50.998;7.098;2023-05-20T01:54:40;101482.94;;;12.64;45.26
76285;BME280;65096;50.998;7.098;2023-05-20T01:57:08;101481.28;;;12.67;44.53
76285;BME280;65096;50.998;7.098;2023-05-20T01:59:35;101467.28;;;12.52;44.54
76285;BME280;65096;50.998;7.098;2023-05-20T02:02:02;101487.22;;;12.59;44.51
76285;BME280;65096;50.998;7.098;2023-05-20T02:04:28;101485.41;;;12.53;44.25
76285;BME280;65096;50.998;7.098;2023-05-20T02:06:55;101483.63;;;12.49;44.77
76285;BME280;65096;50.998;7.098;2023-05-20T02:09:22;101478.41;;;12.46;44.85
76285;BME280;65096;50.998;7.098;2023-05-20T02:11:48;101476.72;;;12.48;44.82
76285;BME280;65096;50.998;7.098;2023-05-20T02:14:16;101472.34;;;12.43;45.09
76285;BME280;65096;50.998;7.098;2023-05-20T02:16:43;101479.28;;;12.44;45.08
76285;BME280;65096;50.998;7.098;2023-05-20T02:19:09;101479.22;;;12.41;45.61
76285;BME280;65096;50.998;7.098;2023-05-20T02:21:37;101474.06;;;12.39;45.82
76285;BME280;65096;50.998;7.098;2023-05-20T02:24:05;101470.56;;;12.36;46.12
76285;BME280;65096;50.998;7.098;2023-05-20T02:26:31;101466.19;;;12.32;45.47
76285;BME280;65096;50.998;7.098;2023-05-20T02:28:58;101472.22;;;12.31;45.79
76285;BME280;65096;50.998;7.098;2023-05-20T02:31:26;101467.91;;;12.30;45.57
76285;BME280;65096;50.998;7.098;2023-05-20T02:33:53;101468.78;;;12.32;45.83
76285;BME280;65096;50.998;7.098;2023-05-20T02:36:20;101471.31;;;12.29;45.80
76285;BME280;65096;50.998;7.098;2023-05-20T02:38:47;101469.56;;;12.23;45.69
76285;BME280;65096;50.998;7.098;2023-05-20T02:41:14;101466.88;;;12.17;46.23
76285;BME280;65096;50.998;7.098;2023-05-20T02:43:40;101459.91;;;12.10;45.81
76285;BME280;65096;50.998;7.098;2023-05-20T02:46:09;101460.78;;;12.11;46.43
76285;BME280;65096;50.998;7.098;2023-05-20T02:48:37;101460.72;;;12.08;46.42
76285;BME280;65096;50.998;7.098;2023-05-20T02:51:04;101465.03;;;12.06;47.42
76285;BME280;65096;50.998;7.098;2023-05-20T02:53:31;101462.38;;;12.01;46.76
76285;BME280;65096;50.998;7.098;2023-05-20T02:55:57;101465.78;;;11.98;46.89
76285;BME280;65096;50.998;7.098;2023-05-20T02:58:25;101455.38;;;11.92;46.62
76285;BME280;65096;50.998;7.098;2023-05-20T03:00:53;101452.81;;;11.92;47.20
76285;BME280;65096;50.998;7.098;2023-05-20T03:03:23;101457.06;;;11.90;46.78
76285;BME280;65096;50.998;7.098;2023-05-20T03:05:52;101450.19;;;11.89;47.27
76285;BME280;65096;50.998;7.098;2023-05-20T03:08:20;101451.81;;;11.81;47.16
76285;BME280;65096;50.998;7.098;2023-05-20T03:10:47;101451.81;;;11.81;47.13
76285;BME280;65096;50.998;7.098;2023-05-20T03:13:14;101446.63;;;11.80;46.84
76285;BME280;65096;50.998;7.098;2023-05-20T03:15:41;101438.81;;;11.77;47.70
76285;BME280;65096;50.998;7.098;2023-05-20T03:18:10;101444.84;;;11.79;47.21
76285;BME280;65096;50.998;7.098;2023-05-20T03:20:38;101440.34;;;11.64;47.97
76285;BME280;65096;50.998;7.098;2023-05-20T03:23:07;101447.31;;;11.68;48.08
76285;BME280;65096;50.998;7.098;2023-05-20T03:25:35;101431.75;;;11.64;48.95
76285;BME280;65096;50.998;7.098;2023-05-20T03:28:02;101441.25;;;11.66;48.57
76285;BME280;65096;50.998;7.098;2023-05-20T03:30:28;101438.66;;;11.65;48.39
76285;BME280;65096;50.998;7.098;2023-05-20T03:32:55;101446.25;;;11.53;48.88
76285;BME280;65096;50.998;7.098;2023-05-20T03:35:22;101440.19;;;11.52;48.60
76285;BME280;65096;50.998;7.098;2023-05-20T03:37:49;101435.06;;;11.55;48.64
76285;BME280;65096;50.998;7.098;2023-05-20T03:40:19;101439.53;;;11.65;49.06
76285;BME280;65096;50.998;7.098;2023-05-20T03:42:46;101440.31;;;11.61;48.62
76285;BME280;65096;50.998;7.098;2023-05-20T03:45:14;101445.47;;;11.61;48.90
76285;BME280;65096;50.998;7.098;2023-05-20T03:47:40;101433.38;;;11.57;48.84
76285;BME280;65096;50.998;7.098;2023-05-20T03:50:08;101430.75;;;11.54;48.48
76285;BME280;65096;50.998;7.098;2023-05-20T03:52:34;101438.53;;;11.56;49.52
76285;BME280;65096;50.998;7.098;2023-05-20T03:55:01;101432.53;;;11.58;49.23
76285;BME280;65096;50.998;7.098;2023-05-20T03:57:29;101434.22;;;11.58;49.46
76285;BME280;65096;50.998;7.098;2023-05-20T03:59:56;101435.94;;;11.54;49.22
76285;BME280;65096;50.998;7.098;2023-05-20T04:02:23;101431.47;;;11.47;50.89
76285;BME280;65096;50.998;7.098;2023-05-20T04:04:49;101431.56;;;11.50;49.81
76285;BME280;65096;50.998;7.098;2023-05-20T04:07:17;101438.53;;;11.56;49.92
76285;BME280;65096;50.998;7.098;2023-05-20T04:09:43;101431.63;;;11.55;50.22
76285;BME280;65096;50.998;7.098;2023-05-20T04:12:10;101429.66;;;11.40;50.94
76285;BME280;65096;50.998;7.098;2023-05-20T04:14:39;101433.25;;;11.48;49.91
76285;BME280;65096;50.998;7.098;2023-05-20T04:17:07;101409.00;;;11.40;49.77
76285;BME280;65096;50.998;7.098;2023-05-20T04:19:34;101432.44;;;11.51;49.84
76285;BME280;65096;50.998;7.098;2023-05-20T04:22:03;101426.38;;;11.50;50.82
76285;BME280;65096;50.998;7.098;2023-05-20T04:24:29;101418.69;;;11.53;50.89
76285;BME280;65096;50.998;7.098;2023-05-20T04:26:56;101420.41;;;11.53;50.97
76285;BME280;65096;50.998;7.098;2023-05-20T04:29:22;101415.19;;;11.50;50.81
76285;BME280;65096;50.998;7.098;2023-05-20T04:31:51;101421.00;;;11.37;52.41
76285;BME280;65096;50.998;7.098;2023-05-20T04:34:20;101427.16;;;11.45;51.77
76285;BME280;65096;50.998;7.098;2023-05-20T04:36:51;101422.84;;;11.45;51.30
76285;BME280;65096;50.998;7.098;2023-05-20T04:39:17;101417.66;;;11.44;52.02
76285;BME280;65096;50.998;7.098;2023-05-20T04:41:44;101407.31;;;11.42;51.00
76285;BME280;65096;50.998;7.098;2023-05-20T04:44:12;101421.25;;;11.53;51.54
76285;BME280;65096;50.998;7.098;2023-05-20T04:46:39;101417.66;;;11.45;51.07
76285;BME280;65096;50.998;7.098;2023-05-20T04:49:07;101407.22;;;11.35;51.45
76285;BME280;65096;50.998;7.098;2023-05-20T04:51:33;101427.25;;;11.51;52.34
76285;BME280;65096;50.998;7.098;2023-05-20T04:54:00;101417.84;;;11.54;51.35
76285;BME280;65096;50.998;7.098;2023-05-20T04:56:27;101427.38;;;11.58;51.15
76285;BME280;65096;50.998;7.098;2023-05-20T04:58:53;101430.75;;;11.54;52.11
76285;BME280;65096;50.998;7.098;2023-05-20T05:01:20;101433.31;;;11.53;52.46
76285;BME280;65096;50.998;7.098;2023-05-20T05:03:47;101420.41;;;11.51;52.24
76285;BME280;65096;50.998;7.098;2023-05-20T05:06:15;101422.19;;;11.57;51.94
76285;BME280;65096;50.998;7.098;2023-05-20T05:08:42;101436.06;;;11.65;51.55
76285;BME280;65096;50.998;7.098;2023-05-20T05:11:08;101427.41;;;11.63;51.74
76285;BME280;65096;50.998;7.098;2023-05-20T05:13:35;101435.22;;;11.67;52.42
76285;BME280;65096;50.998;7.098;2023-05-20T05:16:02;101434.44;;;11.73;52.42
76285;BME280;65096;50.998;7.098;2023-05-20T05:18:28;101432.75;;;11.75;52.30
76285;BME280;65096;50.998;7.098;2023-05-20T05:20:59;101422.47;;;11.78;52.35
76285;BME280;65096;50.998;7.098;2023-05-20T05:23:28;101423.44;;;11.86;52.59
76285;BME280;65096;50.998;7.098;2023-05-20T05:25:55;101418.22;;;11.81;52.43
76285;BME280;65096;50.998;7.098;2023-05-20T05:28:21;101426.81;;;11.83;52.16
76285;BME280;65096;50.998;7.098;2023-05-20T05:30:48;101414.78;;;11.85;51.84
76285;BME280;65096;50.998;7.098;2023-05-20T05:33:15;101418.34;;;11.93;51.55
76285;BME280;65096;50.998;7.098;2023-05-20T05:35:42;101407.13;;;11.93;51.68
76285;BME280;65096;50.998;7.098;2023-05-20T05:38:08;101410.63;;;11.98;52.37
76285;BME280;65096;50.998;7.098;2023-05-20T05:40:37;101411.53;;;12.01;52.02
76285;BME280;65096;50.998;7.098;2023-05-20T05:43:03;101401.22;;;12.03;51.64
76285;BME280;65096;50.998;7.098;2023-05-20T05:45:30;101397.91;;;12.15;51.99
76285;BME280;65096;50.998;7.098;2023-05-20T05:47:57;101393.59;;;12.12;52.22
76285;BME280;65096;50.998;7.098;2023-05-20T05:50:23;101396.06;;;12.03;51.78
76285;BME280;65096;50.998;7.098;2023-05-20T05:52:50;101393.59;;;12.14;51.80
76285;BME280;65096;50.998;7.098;2023-05-20T05:55:17;101391.09;;;12.23;51.69
76285;BME280;65096;50.998;7.098;2023-05-20T05:57:45;101391.16;;;12.27;51.19
76285;BME280;65096;50.998;7.098;2023-05-20T06:00:12;101383.38;;;12.27;52.14
76285;BME280;65096;50.998;7.098;2023-05-20T06:02:39;101389.38;;;12.22;51.95
76285;BME280;65096;50.998;7.098;2023-05-20T06:05:07;101392.94;;;12.33;51.68
76285;BME280;65096;50.998;7.098;2023-05-20T06:07:34;101391.22;;;12.35;52.02
76285;BME280;65096;50.998;7.098;2023-05-20T06:10:00;101397.38;;;12.44;51.35
76285;BME280;65096;50.998;7.098;2023-05-20T06:12:27;101391.19;;;12.32;51.48
76285;BME280;65096;50.998;7.098;2023-05-20T06:14:55;101386.13;;;12.42;51.71
76285;BME280;65096;50.998;7.098;2023-05-20T06:17:22;101387.84;;;12.40;52.59
76285;BME280;65096;50.998;7.098;2023-05-20T06:19:49;101385.34;;;12.51;52.36
76285;BME280;65096;50.998;7.098;2023-05-20T06:22:15;101386.22;;;12.53;51.66
76285;BME280;65096;50.998;7.098;2023-05-20T06:24:42;101389.66;;;12.52;51.37
76285;BME280;65096;50.998;7.098;2023-05-20T06:27:09;101387.19;;;12.62;51.85
76285;BME280;65096;50.998;7.098;2023-05-20T06:29:35;101384.63;;;12.65;51.62
76285;BME280;65096;50.998;7.098;2023-05-20T06:32:04;101384.72;;;12.73;51.76
76285;BME280;65096;50.998;7.098;2023-05-20T06:34:31;101382.13;;;12.71;51.69
76285;BME280;65096;50.998;7.098;2023-05-20T06:36:58;101381.28;;;12.78;51.74
76285;BME280;65096;50.998;7.098;2023-05-20T06:39:24;101388.31;;;12.90;51.22
76285;BME280;65096;50.998;7.098;2023-05-20T06:41:51;101381.47;;;12.98;50.96
76285;BME280;65096;50.998;7.098;2023-05-20T06:44:18;101383.19;;;13.02;51.20
76285;BME280;65096;50.998;7.098;2023-05-20T06:46:44;101387.53;;;13.04;50.94
76285;BME280;65096;50.998;7.098;2023-05-20T06:49:12;101371.09;;;12.98;51.07
76285;BME280;65096;50.998;7.098;2023-05-20T06:51:39;101386.69;;;13.10;50.60
76285;BME280;65096;50.998;7.098;2023-05-20T06:54:06;101381.50;;;13.04;50.80
76285;BME280;65096;50.998;7.098;2023-05-20T06:56:32;101390.19;;;13.15;51.24
76285;BME280;65096;50.998;7.098;2023-05-20T06:58:59;101372.97;;;13.18;51.01
76285;BME280;65096;50.998;7.098;2023-05-20T07:01:26;101380.75;;;13.24;50.77
76285;BME280;65096;50.998;7.098;2023-05-20T07:03:52;101378.22;;;13.30;50.55
76285;BME280;65096;50.998;7.098;2023-05-20T07:06:20;101386.09;;;13.48;51.49
76285;BME280;65096;50.998;7.098;2023-05-20T07:08:47;101383.50;;;13.50;51.08
76285;BME280;65096;50.998;7.098;2023-05-20T07:11:13;101374.00;;;13.52;50.67
76285;BME280;65096;50.998;7.098;2023-05-20T07:13:40;101372.28;;;13.50;50.16
76285;BME280;65096;50.998;7.098;2023-05-20T07:16:07;101381.84;;;13.58;49.96
76285;BME280;65096;50.998;7.098;2023-05-20T07:18:33;101381.00;;;13.64;50.42
76285;BME280;65096;50.998;7.098;2023-05-20T07:21:00;101379.34;;;13.82;50.87
76285;BME280;65096;50.998;7.098;2023-05-20T07:23:28;101369.88;;;13.87;50.71
76285;BME280;65096;50.998;7.098;2023-05-20T07:25:55;101372.44;;;13.72;49.35
76285;BME280;65096;50.998;7.098;2023-05-20T07:28:22;101373.31;;;13.80;50.20
76285;BME280;65096;50.998;7.098;2023-05-20T07:30:48;101359.50;;;13.92;49.25
76285;BME280;65096;50.998;7.098;2023-05-20T07:33:15;101361.28;;;14.09;49.62
76285;BME280;65096;50.998;7.098;2023-05-20T07:35:42;101363.91;;;14.20;49.78
76285;BME280;65096;50.998;7.098;2023-05-20T07:38:09;101362.19;;;14.28;50.57
76285;BME280;65096;50.998;7.098;2023-05-20T07:40:38;101357.00;;;14.35;49.89
76285;BME280;65096;50.998;7.098;2023-05-20T07:43:06;101354.41;;;14.34;49.84
76285;BME280;65096;50.998;7.098;2023-05-20T07:45:34;101357.00;;;14.44;49.44
76285;BME280;65096;50.998;7.098;2023-05-20T07:48:02;101352.72;;;14.51;49.40
76285;BME280;65096;50.998;7.098;2023-05-20T07:50:28;101334.53;;;14.37;48.90
76285;BME280;65096;50.998;7.098;2023-05-20T07:52:55;101367.44;;;14.59;48.76
76285;BME280;65096;50.998;7.098;2023-05-20T07:55:22;101357.91;;;14.54;49.09
76285;BME280;65096;50.998;7.098;2023-05-20T07:57:50;101352.75;;;14.64;49.07
76285;BME280;65096;50.998;7.098;2023-05-20T08:00:17;101347.53;;;14.70;49.34
76285;BME280;65096;50.998;7.098;2023-05-20T08:02:44;101356.19;;;14.60;47.96
76285;BME280;65096;50.998;7.098;2023-05-20T08:05:10;101353.59;;;14.72;49.20
76285;BME280;65096;50.998;7.098;2023-05-20T08:07:37;101352.72;;;14.79;48.70
76285;BME280;65096;50.998;7.098;2023-05-20T08:10:05;101352.72;;;14.89;48.81
76285;BME280;65096;50.998;7.098;2023-05-20T08:12:31;101356.19;;;14.94;48.65
76285;BME280;65096;50.998;7.098;2023-05-20T08:15:00;101358.78;;;15.00;48.38
76285;BME280;65096;50.998;7.098;2023-05-20T08:17:26;101363.97;;;15.03;48.33
76285;BME280;65096;50.998;7.098;2023-05-20T08:19:53;101355.28;;;15.05;48.85
76285;BME280;65096;50.998;7.098;2023-05-20T08:22:20;101354.44;;;15.06;48.55
76285;BME280;65096;50.998;7.098;2023-05-20T08:24:46;101358.75;;;15.09;47.74
76285;BME280;65096;50.998;7.098;2023-05-20T08:27:13;101359.59;;;15.18;47.83
76285;BME280;65096;50.998;7.098;2023-05-20T08:29:40;101345.75;;;15.16;48.15
76285;BME280;65096;50.998;7.098;2023-05-20T08:32:08;101344.00;;;15.29;48.60
76285;BME280;65096;50.998;7.098;2023-05-20T08:34:34;101338.78;;;15.39;48.35
76285;BME280;65096;50.998;7.098;2023-05-20T08:37:02;101344.81;;;15.49;48.46
76285;BME280;65096;50.998;7.098;2023-05-20T08:39:28;101340.47;;;15.55;48.46
76285;BME280;65096;50.998;7.098;2023-05-20T08:41:56;101351.69;;;15.63;48.50
76285;BME280;65096;50.998;7.098;2023-05-20T08:44:23;101350.84;;;15.58;48.11
76285;BME280;65096;50.998;7.098;2023-05-20T08:46:51;101339.56;;;15.65;47.94
76285;BME280;65096;50.998;7.098;2023-05-20T08:49:20;101332.59;;;15.73;47.83
76285;BME280;65096;50.998;7.098;2023-05-20T08:51:46;101329.94;;;15.81;47.79
76285;BME280;65096;50.998;7.098;2023-05-20T08:54:14;101329.06;;;15.77;47.21
76285;BME280;65096;50.998;7.098;2023-05-20T08:56:42;101323.00;;;15.83;47.57
76285;BME280;65096;50.998;7.098;2023-05-20T08:59:09;101333.31;;;15.99;47.75
76285;BME280;65096;50.998;7.098;2023-05-20T09:01:40;101332.34;;;16.15;47.99
76285;BME280;65096;50.998;7.098;2023-05-20T09:04:07;101330.56;;;16.19;47.31
76285;BME280;65096;50.998;7.098;2023-05-20T09:06:43;101335.75;;;16.30;47.21
76285;BME280;65096;50.998;7.098;2023-05-20T09:09:10;101324.44;;;16.32;47.19
76285;BME280;65096;50.998;7.098;2023-05-20T09:11:38;101321.75;;;16.43;47.19
76285;BME280;65096;50.998;7.098;2023-05-20T09:14:05;101330.38;;;16.52;46.88
76285;BME280;65096;50.998;7.098;2023-05-20T09:16:31;101322.44;;;16.64;47.42
76285;BME280;65096;50.998;7.098;2023-05-20T09:18:58;101322.38;;;16.70;46.85
76285;BME280;65096;50.998;7.098;2023-05-20T09:21:26;101329.19;;;16.83;46.25
76285;BME280;65096;50.998;7.098;2023-05-20T09:23:54;101338.63;;;16.96;45.38
76285;BME280;65096;50.998;7.098;2023-05-20T09:26:21;101324.75;;;16.94;46.22
76285;BME280;65096;50.998;7.098;2023-05-20T09:28:49;101321.19;;;17.03;46.15
76285;BME280;65096;50.998;7.098;2023-05-20T09:31:15;101329.00;;;17.07;45.69
76285;BME280;65096;50.998;7.098;2023-05-20T09:33:42;101321.13;;;17.10;45.74
76285;BME280;65096;50.998;7.098;2023-05-20T09:36:09;101290.81;;;17.03;45.22
76285;BME280;65096;50.998;7.098;2023-05-20T09:38:38;101319.16;;;17.33;45.73
76285;BME280;65096;50.998;7.098;2023-05-20T09:41:11;101312.88;;;17.48;44.45
76285;BME280;65096;50.998;7.098;2023-05-20T09:43:41;101317.25;;;17.46;45.55
76285;BME280;65096;50.998;7.098;2023-05-20T09:46:08;101314.69;;;17.43;44.68
76285;BME280;65096;50.998;7.098;2023-05-20T09:48:36;101314.47;;;17.61;45.15
76285;BME280;65096;50.998;7.098;2023-05-20T09:51:03;101318.75;;;17.65;44.83
76285;BME280;65096;50.998;7.098;2023-05-20T09:53:31;101282.44;;;17.51;45.35
76285;BME280;65096;50.998;7.098;2023-05-20T09:55:58;101312.41;;;17.86;44.44
76285;BME280;65096;50.998;7.098;2023-05-20T09:58:27;101314.84;;;17.99;44.44
76285;BME280;65096;50.998;7.098;2023-05-20T10:00:54;101308.66;;;18.03;43.43
76285;BME280;65096;50.998;7.098;2023-05-20T10:03:22;101311.22;;;18.06;44.26
76285;BME280;65096;50.998;7.098;2023-05-20T10:05:59;101313.81;;;18.09;43.58
76285;BME280;65096;50.998;7.098;2023-05-20T10:08:41;101317.19;;;18.17;43.47
76285;BME280;65096;50.998;7.098;2023-05-20T10:11:18;101307.47;;;18.24;43.04
76285;BME280;65096;50.998;7.098;2023-05-20T10:14:00;101321.41;;;18.23;42.80
76285;BME280;65096;50.998;7.098;2023-05-20T10:16:37;101312.84;;;18.15;43.61
76285;BME280;65096;50.998;7.098;2023-05-20T10:19:11;101300.78;;;18.09;42.93
76285;BME280;65096;50.998;7.098;2023-05-20T10:21:40;101312.19;;;18.01;42.14
76285;BME280;65096;50.998;7.098;2023-05-20T10:24:08;101332.19;;;18.02;43.27
76285;BME280;65096;50.998;7.098;2023-05-20T10:26:35;101322.59;;;18.04;42.71
76285;BME280;65096;50.998;7.098;2023-05-20T10:29:14;101325.13;;;18.08;43.01
76285;BME280;65096;50.998;7.098;2023-05-20T10:31:47;101307.03;;;17.98;42.52
76285;BME280;65096;50.998;7.098;2023-05-20T10:34:15;101324.25;;;18.09;42.80
76285;BME280;65096;50.998;7.098;2023-05-20T10:36:45;101332.09;;;18.06;42.85
76285;BME280;65096;50.998;7.098;2023-05-20T10:39:14;101331.41;;;17.95;42.25
76285;BME280;65096;50.998;7.098;2023-05-20T10:41:42;101325.38;;;17.93;43.39
76285;BME280;65096;50.998;7.098;2023-05-20T10:44:08;101331.47;;;17.91;43.04
76285;BME280;65096;50.998;7.098;2023-05-20T10:46:36;101320.84;;;18.04;43.24
76285;BME280;65096;50.998;7.098;2023-05-20T10:49:03;101313.81;;;18.08;43.21
76285;BME280;65096;50.998;7.098;2023-05-20T10:51:34;101324.19;;;18.14;43.24
76285;BME280;65096;50.998;7.098;2023-05-20T10:54:01;101320.56;;;18.22;42.50
76285;BME280;65096;50.998;7.098;2023-05-20T10:56:28;101306.81;;;18.11;42.80
76285;BME280;65096;50.998;7.098;2023-05-20T10:58:55;101311.94;;;18.16;42.52
76285;BME280;65096;50.998;7.098;2023-05-20T11:01:23;101311.94;;;18.19;42.78
76285;BME280;65096;50.998;7.098;2023-05-20T11:03:53;101292.13;;;18.06;42.56
76285;BME280;65096;50.998;7.098;2023-05-20T11:06:25;101286.78;;;18.12;42.98
76285;BME280;65096;50.998;7.098;2023-05-20T11:08:52;101303.16;;;18.23;43.36
76285;BME280;65096;50.998;7.098;2023-05-20T11:11:19;101310.09;;;18.24;43.17
76285;BME280;65096;50.998;7.098;2023-05-20T11:13:49;101297.03;;;18.25;43.24
76285;BME280;65096;50.998;7.098;2023-05-20T11:16:17;101295.13;;;18.35;43.33
76285;BME280;65096;50.998;7.098;2023-05-20T11:18:47;101294.91;;;18.47;43.41
76285;BME280;65096;50.998;7.098;2023-05-20T11:21:15;101253.34;;;18.35;43.74
76285;BME280;65096;50.998;7.098;2023-05-20T11:23:42;101292.94;;;18.61;43.94
76285;BME280;65096;50.998;7.098;2023-05-20T11:26:09;101288.44;;;18.70;43.31
76285;BME280;65096;50.998;7.098;2023-05-20T11:28:36;101273.59;;;18.72;43.54
76285;BME280;65096;50.998;7.098;2023-05-20T11:31:04;101270.97;;;18.74;42.83
76285;BME280;65096;50.998;7.098;2023-05-20T11:33:31;101268.19;;;18.81;42.08
76285;BME280;65096;50.998;7.098;2023-05-20T11:35:57;101275.97;;;18.86;42.51
76285;BME280;65096;50.998;7.098;2023-05-20T11:38:25;101268.81;;;18.95;43.06
76285;BME280;65096;50.998;7.098;2023-05-20T11:40:54;101265.34;;;18.95;42.84
76285;BME280;65096;50.998;7.098;2023-05-20T11:43:22;101262.63;;;18.99;42.89
76285;BME280;65096;50.998;7.098;2023-05-20T11:45:53;101262.41;;;19.12;42.63
76285;BME280;65096;50.998;7.098;2023-05-20T11:48:20;101264.97;;;19.13;42.78
76285;BME280;65096;50.998;7.098;2023-05-20T11:50:47;101250.13;;;19.14;42.31
76285;BME280;65096;50.998;7.098;2023-05-20T11:53:15;101265.75;;;19.17;42.88
76285;BME280;65096;50.998;7.098;2023-05-20T11:55:48;101257.06;;;19.16;42.03
76285;BME280;65096;50.998;7.098;2023-05-20T11:58:16;101256.13;;;19.19;42.99
76285;BME280;65096;50.998;7.098;2023-05-20T12:00:43;101263.22;;;19.14;41.90
76285;BME280;65096;50.998;7.098;2023-05-20T12:03:10;101250.81;;;19.23;43.27
76285;BME280;65096;50.998;7.098;2023-05-20T12:05:37;101259.28;;;18.91;42.40
76285;BME280;65096;50.998;7.098;2023-05-20T12:08:04;101245.09;;;19.05;42.81
76285;BME280;65096;50.998;7.098;2023-05-20T12:10:31;101232.97;;;19.00;42.88
76285;BME280;65096;50.998;7.098;2023-05-20T12:12:59;101242.13;;;19.23;43.47
76285;BME280;65096;50.998;7.098;2023-05-20T12:15:27;101241.88;;;19.33;42.30
76285;BME280;65096;50.998;7.098;2023-05-20T12:17:55;101251.69;;;19.24;42.24
76285;BME280;65096;50.998;7.098;2023-05-20T12:20:23;101237.66;;;19.26;41.51
76285;BME280;65096;50.998;7.098;2023-05-20T12:22:50;101244.63;;;19.27;41.68
76285;BME280;65096;50.998;7.098;2023-05-20T12:25:19;101234.00;;;19.35;42.07
76285;BME280;65096;50.998;7.098;2023-05-20T12:27:47;101235.00;;;19.29;41.96
76285;BME280;65096;50.998;7.098;2023-05-20T12:30:17;101239.84;;;19.47;42.51
76285;BME280;65096;50.998;7.098;2023-05-20T12:32:45;101232.78;;;19.52;41.81
76285;BME280;65096;50.998;7.098;2023-05-20T12:35:12;101231.91;;;19.53;41.91
76285;BME280;65096;50.998;7.098;2023-05-20T12:37:40;101233.47;;;19.60;42.35
76285;BME280;65096;50.998;7.098;2023-05-20T12:40:08;101223.94;;;19.58;42.24
76285;BME280;65096;50.998;7.098;2023-05-20T12:42:35;101230.50;;;19.37;41.89
76285;BME280;65096;50.998;7.098;2023-05-20T12:45:02;101231.97;;;19.49;41.78
76285;BME280;65096;50.998;7.098;2023-05-20T12:47:31;101229.53;;;19.41;42.08
76285;BME280;65096;50.998;7.098;2023-05-20T12:49:58;101219.56;;;19.58;40.83
76285;BME280;65096;50.998;7.098;2023-05-20T12:52:25;101212.03;;;19.81;40.65